Terminal Aerodrome Forecast
Issued by NWS

Home | Current Version | Previous Version | Text Only | Print | Product List | Glossary On
Versions: 1 2 3 4 5 6 7 8 9 10 11 12
000
FTUS45 KGGW 140520
TAFGDV
TAF
KGDV 140520Z 1406/1506 29015G21KT P6SM OVC060
     FM141000 31017G24KT P6SM BKN030
     FM141300 32015G24KT P6SM BKN018
     FM141900 31014KT P6SM BKN035
     FM150100 27007KT P6SM SCT080=

USA.gov is the U.S. government's official web portal to all federal, state and local government web resources and services.